sensor_id;sensor_type;location;lat;lon;timestamp;temperature;humidity
318;DHT22;146;53.448;10.228;2023-03-01T00:02:07;-0.30;1.00
318;DHT22;146;53.448;10.228;2023-03-01T00:04:36;-0.30;1.00
318;DHT22;146;53.448;10.228;2023-03-01T00:07:03;-0.30;1.00
318;DHT22;146;53.448;10.228;2023-03-01T00:09:36;-0.30;1.00
318;DHT22;146;53.448;10.228;2023-03-01T00:12:08;-0.30;1.00
318;DHT22;146;53.448;10.228;2023-03-01T00:14:36;-0.30;1.00
318;DHT22;146;53.448;10.228;2023-03-01T00:17:06;-0.40;1.00
318;DHT22;146;53.448;10.228;2023-03-01T00:19:33;-0.40;1.00
318;DHT22;146;53.448;10.228;2023-03-01T00:21:59;-0.40;1.00
318;DHT22;146;53.448;10.228;2023-03-01T00:24:29;-0.40;1.00
318;DHT22;146;53.448;10.228;2023-03-01T00:26:57;-0.40;1.00
318;DHT22;146;53.448;10.228;2023-03-01T00:29:25;-0.40;1.00
318;DHT22;146;53.448;10.228;2023-03-01T00:31:51;-0.40;1.00
318;DHT22;146;53.448;10.228;2023-03-01T00:34:24;-0.40;1.00
318;DHT22;146;53.448;10.228;2023-03-01T00:36:54;-0.40;1.00
318;DHT22;146;53.448;10.228;2023-03-01T00:39:29;-0.40;1.00
318;DHT22;146;53.448;10.228;2023-03-01T00:42:06;-0.40;1.00
318;DHT22;146;53.448;10.228;2023-03-01T00:44:33;-0.40;1.00
318;DHT22;146;53.448;10.228;2023-03-01T00:47:00;-0.30;1.00
318;DHT22;146;53.448;10.228;2023-03-01T00:49:27;-0.40;1.00
318;DHT22;146;53.448;10.228;2023-03-01T00:51:54;-0.40;1.00
318;DHT22;146;53.448;10.228;2023-03-01T00:54:20;-0.40;1.00
318;DHT22;146;53.448;10.228;2023-03-01T00:56:50;-0.40;1.00
318;DHT22;146;53.448;10.228;2023-03-01T00:59:21;-0.40;1.00
318;DHT22;146;53.448;10.228;2023-03-01T01:01:48;-0.40;1.00
318;DHT22;146;53.448;10.228;2023-03-01T01:04:17;-0.40;1.00
318;DHT22;146;53.448;10.228;2023-03-01T01:06:48;-0.50;1.00
318;DHT22;146;53.448;10.228;2023-03-01T01:09:16;-0.40;1.00
318;DHT22;146;53.448;10.228;2023-03-01T01:11:50;-0.50;1.00
318;DHT22;146;53.448;10.228;2023-03-01T01:14:22;-0.50;1.00
318;DHT22;146;53.448;10.228;2023-03-01T01:16:48;-0.50;1.00
318;DHT22;146;53.448;10.228;2023-03-01T01:19:18;-0.60;1.00
318;DHT22;146;53.448;10.228;2023-03-01T01:21:45;-0.60;1.00
318;DHT22;146;53.448;10.228;2023-03-01T01:24:13;-0.60;1.00
318;DHT22;146;53.448;10.228;2023-03-01T01:26:49;-0.60;1.00
318;DHT22;146;53.448;10.228;2023-03-01T01:29:19;-0.60;1.00
318;DHT22;146;53.448;10.228;2023-03-01T01:31:47;-0.70;1.00
318;DHT22;146;53.448;10.228;2023-03-01T01:34:19;-0.70;1.00
318;DHT22;146;53.448;10.228;2023-03-01T01:36:51;-0.70;1.00
318;DHT22;146;53.448;10.228;2023-03-01T01:39:22;-0.70;1.00
318;DHT22;146;53.448;10.228;2023-03-01T01:41:48;-0.80;1.00
318;DHT22;146;53.448;10.228;2023-03-01T01:44:17;-0.80;1.00
318;DHT22;146;53.448;10.228;2023-03-01T01:46:52;-0.80;1.00
318;DHT22;146;53.448;10.228;2023-03-01T01:49:27;-0.80;1.00
318;DHT22;146;53.448;10.228;2023-03-01T01:52:00;-0.80;1.00
318;DHT22;146;53.448;10.228;2023-03-01T01:54:41;-0.80;1.00
318;DHT22;146;53.448;10.228;2023-03-01T01:57:13;-0.80;1.00
318;DHT22;146;53.448;10.228;2023-03-01T01:59:43;-0.80;1.00
318;DHT22;146;53.448;10.228;2023-03-01T02:02:15;-0.80;1.00
318;DHT22;146;53.448;10.228;2023-03-01T02:04:42;-0.80;1.00
318;DHT22;146;53.448;10.228;2023-03-01T02:07:14;-0.80;1.00
318;DHT22;146;53.448;10.228;2023-03-01T02:09:55;-0.80;1.00
318;DHT22;146;53.448;10.228;2023-03-01T02:12:24;-0.80;1.00
318;DHT22;146;53.448;10.228;2023-03-01T02:14:52;-0.80;1.00
318;DHT22;146;53.448;10.228;2023-03-01T02:17:23;-0.90;1.00
318;DHT22;146;53.448;10.228;2023-03-01T02:20:03;-1.00;1.00
318;DHT22;146;53.448;10.228;2023-03-01T02:22:34;-1.10;1.00
318;DHT22;146;53.448;10.228;2023-03-01T02:25:08;-1.10;1.00
318;DHT22;146;53.448;10.228;2023-03-01T02:27:42;-1.10;1.00
318;DHT22;146;53.448;10.228;2023-03-01T02:30:18;-1.10;1.00
318;DHT22;146;53.448;10.228;2023-03-01T02:32:56;-1.10;1.00
318;DHT22;146;53.448;10.228;2023-03-01T02:35:30;-1.10;1.00
318;DHT22;146;53.448;10.228;2023-03-01T02:37:58;-1.00;1.00
318;DHT22;146;53.448;10.228;2023-03-01T02:40:28;-1.00;1.00
318;DHT22;146;53.448;10.228;2023-03-01T02:42:58;-1.10;1.00
318;DHT22;146;53.448;10.228;2023-03-01T02:45:29;-1.10;1.00
318;DHT22;146;53.448;10.228;2023-03-01T02:47:56;-1.10;1.00
318;DHT22;146;53.448;10.228;2023-03-01T02:50:56;-1.10;1.00
318;DHT22;146;53.448;10.228;2023-03-01T02:53:38;-1.10;1.00
318;DHT22;146;53.448;10.228;2023-03-01T02:56:15;-1.10;1.00
318;DHT22;146;53.448;10.228;2023-03-01T02:58:43;-1.00;1.00
318;DHT22;146;53.448;10.228;2023-03-01T03:01:14;-1.00;1.00
318;DHT22;146;53.448;10.228;2023-03-01T03:03:42;-1.00;1.00
318;DHT22;146;53.448;10.228;2023-03-01T03:06:12;-0.90;1.00
318;DHT22;146;53.448;10.228;2023-03-01T03:08:49;-0.80;1.00
318;DHT22;146;53.448;10.228;2023-03-01T03:11:15;-0.80;1.00
318;DHT22;146;53.448;10.228;2023-03-01T03:13:51;-0.60;1.00
318;DHT22;146;53.448;10.228;2023-03-01T03:16:20;-0.50;1.00
318;DHT22;146;53.448;10.228;2023-03-01T03:18:48;-0.50;1.00
318;DHT22;146;53.448;10.228;2023-03-01T03:21:16;-0.40;1.00
318;DHT22;146;53.448;10.228;2023-03-01T03:23:43;-0.40;1.00
318;DHT22;146;53.448;10.228;2023-03-01T03:26:16;-0.30;1.00
318;DHT22;146;53.448;10.228;2023-03-01T03:28:43;-0.20;1.00
318;DHT22;146;53.448;10.228;2023-03-01T03:31:09;-0.20;1.00
318;DHT22;146;53.448;10.228;2023-03-01T03:33:37;0.00;1.00
318;DHT22;146;53.448;10.228;2023-03-01T03:36:05;0.00;1.00
318;DHT22;146;53.448;10.228;2023-03-01T03:38:32;0.00;1.00
318;DHT22;146;53.448;10.228;2023-03-01T03:41:03;0.10;1.00
318;DHT22;146;53.448;10.228;2023-03-01T03:43:32;0.20;1.00
318;DHT22;146;53.448;10.228;2023-03-01T03:46:06;0.20;1.00
318;DHT22;146;53.448;10.228;2023-03-01T03:48:34;0.20;1.00
318;DHT22;146;53.448;10.228;2023-03-01T03:51:02;0.30;1.00
318;DHT22;146;53.448;10.228;2023-03-01T03:53:31;0.30;1.00
318;DHT22;146;53.448;10.228;2023-03-01T03:55:58;0.40;1.00
318;DHT22;146;53.448;10.228;2023-03-01T03:58:25;0.40;1.00
318;DHT22;146;53.448;10.228;2023-03-01T04:00:53;0.50;1.00
318;DHT22;146;53.448;10.228;2023-03-01T04:03:25;0.60;1.00
318;DHT22;146;53.448;10.228;2023-03-01T04:05:57;0.60;1.00
318;DHT22;146;53.448;10.228;2023-03-01T04:08:26;0.70;1.00
318;DHT22;146;53.448;10.228;2023-03-01T04:11:00;0.70;1.00
318;DHT22;146;53.448;10.228;2023-03-01T04:13:52;0.70;1.00
318;DHT22;146;53.448;10.228;2023-03-01T04:16:19;0.80;1.00
318;DHT22;146;53.448;10.228;2023-03-01T04:18:52;0.90;1.00
318;DHT22;146;53.448;10.228;2023-03-01T04:21:20;0.80;1.00
318;DHT22;146;53.448;10.228;2023-03-01T04:23:51;0.80;1.00
318;DHT22;146;53.448;10.228;2023-03-01T04:26:21;0.80;1.00
318;DHT22;146;53.448;10.228;2023-03-01T04:28:54;0.90;1.00
318;DHT22;146;53.448;10.228;2023-03-01T04:31:27;0.90;1.00
318;DHT22;146;53.448;10.228;2023-03-01T04:34:00;0.90;1.00
318;DHT22;146;53.448;10.228;2023-03-01T04:36:28;1.00;1.00
318;DHT22;146;53.448;10.228;2023-03-01T04:38:57;0.90;1.00
318;DHT22;146;53.448;10.228;2023-03-01T04:41:24;1.00;1.00
318;DHT22;146;53.448;10.228;2023-03-01T04:43:51;1.00;1.00
318;DHT22;146;53.448;10.228;2023-03-01T04:46:20;1.10;1.00
318;DHT22;146;53.448;10.228;2023-03-01T04:48:48;1.10;1.00
318;DHT22;146;53.448;10.228;2023-03-01T04:51:15;1.10;1.00
318;DHT22;146;53.448;10.228;2023-03-01T04:53:45;1.10;1.00
318;DHT22;146;53.448;10.228;2023-03-01T04:56:14;1.10;1.00
318;DHT22;146;53.448;10.228;2023-03-01T04:58:47;1.10;1.00
318;DHT22;146;53.448;10.228;2023-03-01T05:01:18;1.10;1.00
318;DHT22;146;53.448;10.228;2023-03-01T05:03:47;1.20;1.00
318;DHT22;146;53.448;10.228;2023-03-01T05:06:14;1.20;1.00
318;DHT22;146;53.448;10.228;2023-03-01T05:08:42;1.20;1.00
318;DHT22;146;53.448;10.228;2023-03-01T05:11:17;1.20;1.00
318;DHT22;146;53.448;10.228;2023-03-01T05:13:47;1.10;1.00
318;DHT22;146;53.448;10.228;2023-03-01T05:16:18;1.20;1.00
318;DHT22;146;53.448;10.228;2023-03-01T05:18:51;1.20;1.00
318;DHT22;146;53.448;10.228;2023-03-01T05:21:24;1.20;1.00
318;DHT22;146;53.448;10.228;2023-03-01T05:23:54;1.30;1.00
318;DHT22;146;53.448;10.228;2023-03-01T05:26:25;1.30;1.00
318;DHT22;146;53.448;10.228;2023-03-01T05:28:54;1.20;1.00
318;DHT22;146;53.448;10.228;2023-03-01T05:31:23;1.20;1.00
318;DHT22;146;53.448;10.228;2023-03-01T05:33:55;1.20;1.00
318;DHT22;146;53.448;10.228;2023-03-01T05:36:25;1.20;1.00
318;DHT22;146;53.448;10.228;2023-03-01T05:38:54;1.10;1.00
318;DHT22;146;53.448;10.228;2023-03-01T05:41:26;1.00;1.00
318;DHT22;146;53.448;10.228;2023-03-01T05:43:56;1.10;1.00
318;DHT22;146;53.448;10.228;2023-03-01T05:46:22;1.20;1.00
318;DHT22;146;53.448;10.228;2023-03-01T05:48:49;1.20;1.00
318;DHT22;146;53.448;10.228;2023-03-01T05:51:16;1.30;1.00
318;DHT22;146;53.448;10.228;2023-03-01T05:53:47;1.30;1.00
318;DHT22;146;53.448;10.228;2023-03-01T05:56:17;1.30;1.00
318;DHT22;146;53.448;10.228;2023-03-01T05:58:49;1.30;1.00
318;DHT22;146;53.448;10.228;2023-03-01T06:01:16;1.40;1.00
318;DHT22;146;53.448;10.228;2023-03-01T06:03:42;1.30;1.00
318;DHT22;146;53.448;10.228;2023-03-01T06:06:14;1.30;1.00
318;DHT22;146;53.448;10.228;2023-03-01T06:08:44;1.30;1.00
318;DHT22;146;53.448;10.228;2023-03-01T06:11:11;1.30;1.00
318;DHT22;146;53.448;10.228;2023-03-01T06:13:41;1.20;1.00
318;DHT22;146;53.448;10.228;2023-03-01T06:16:15;1.10;1.00
318;DHT22;146;53.448;10.228;2023-03-01T06:18:42;1.10;1.00
318;DHT22;146;53.448;10.228;2023-03-01T06:21:11;1.10;1.00
318;DHT22;146;53.448;10.228;2023-03-01T06:23:41;1.20;1.00
318;DHT22;146;53.448;10.228;2023-03-01T06:26:08;1.30;1.00
318;DHT22;146;53.448;10.228;2023-03-01T06:28:35;1.30;1.00
318;DHT22;146;53.448;10.228;2023-03-01T06:31:02;1.30;1.00
318;DHT22;146;53.448;10.228;2023-03-01T06:33:30;1.40;1.00
318;DHT22;146;53.448;10.228;2023-03-01T06:36:06;1.50;1.00
318;DHT22;146;53.448;10.228;2023-03-01T06:38:33;1.50;1.00
318;DHT22;146;53.448;10.228;2023-03-01T06:41:00;1.50;1.00
318;DHT22;146;53.448;10.228;2023-03-01T06:43:33;1.60;1.00
318;DHT22;146;53.448;10.228;2023-03-01T06:46:08;1.60;1.00
318;DHT22;146;53.448;10.228;2023-03-01T06:48:36;1.70;1.00
318;DHT22;146;53.448;10.228;2023-03-01T06:51:03;1.70;1.00
318;DHT22;146;53.448;10.228;2023-03-01T06:53:30;1.70;1.00
318;DHT22;146;53.448;10.228;2023-03-01T06:55:57;1.80;1.00
318;DHT22;146;53.448;10.228;2023-03-01T06:58:25;1.80;1.00
318;DHT22;146;53.448;10.228;2023-03-01T07:00:52;1.90;1.00
318;DHT22;146;53.448;10.228;2023-03-01T07:03:21;1.90;1.00
318;DHT22;146;53.448;10.228;2023-03-01T07:05:50;1.80;1.00
318;DHT22;146;53.448;10.228;2023-03-01T07:08:17;1.70;1.00
318;DHT22;146;53.448;10.228;2023-03-01T07:10:45;1.80;1.00
318;DHT22;146;53.448;10.228;2023-03-01T07:13:12;1.90;1.00
318;DHT22;146;53.448;10.228;2023-03-01T07:15:40;2.00;1.00
318;DHT22;146;53.448;10.228;2023-03-01T07:18:07;2.00;1.00
318;DHT22;146;53.448;10.228;2023-03-01T07:20:34;2.10;1.00
318;DHT22;146;53.448;10.228;2023-03-01T07:23:05;2.10;1.00
318;DHT22;146;53.448;10.228;2023-03-01T07:25:32;2.20;1.00
318;DHT22;146;53.448;10.228;2023-03-01T07:28:02;2.10;1.00
318;DHT22;146;53.448;10.228;2023-03-01T07:30:32;2.10;1.00
318;DHT22;146;53.448;10.228;2023-03-01T07:32:59;2.10;1.00
318;DHT22;146;53.448;10.228;2023-03-01T07:35:26;2.00;1.00
318;DHT22;146;53.448;10.228;2023-03-01T07:37:56;2.10;1.00
318;DHT22;146;53.448;10.228;2023-03-01T07:40:27;2.10;1.00
318;DHT22;146;53.448;10.228;2023-03-01T07:42:55;2.00;1.00
318;DHT22;146;53.448;10.228;2023-03-01T07:45:22;2.00;1.00
318;DHT22;146;53.448;10.228;2023-03-01T07:47:50;2.10;1.00
318;DHT22;146;53.448;10.228;2023-03-01T07:50:17;2.00;1.00
318;DHT22;146;53.448;10.228;2023-03-01T07:52:48;2.20;1.00
318;DHT22;146;53.448;10.228;2023-03-01T07:55:16;2.30;1.00
318;DHT22;146;53.448;10.228;2023-03-01T07:57:44;2.30;1.00
318;DHT22;146;53.448;10.228;2023-03-01T08:00:12;2.40;1.00
318;DHT22;146;53.448;10.228;2023-03-01T08:02:39;2.40;1.00
318;DHT22;146;53.448;10.228;2023-03-01T08:05:07;2.40;1.00
318;DHT22;146;53.448;10.228;2023-03-01T08:07:34;2.50;1.00
318;DHT22;146;53.448;10.228;2023-03-01T08:10:01;2.50;1.00
318;DHT22;146;53.448;10.228;2023-03-01T08:12:30;2.50;1.00
318;DHT22;146;53.448;10.228;2023-03-01T08:14:59;2.70;1.00
318;DHT22;146;53.448;10.228;2023-03-01T08:17:25;2.70;1.00
318;DHT22;146;53.448;10.228;2023-03-01T08:19:54;2.90;1.00
318;DHT22;146;53.448;10.228;2023-03-01T08:22:21;3.00;1.00
318;DHT22;146;53.448;10.228;2023-03-01T08:24:48;3.10;1.00
318;DHT22;146;53.448;10.228;2023-03-01T08:27:17;3.20;1.00
318;DHT22;146;53.448;10.228;2023-03-01T08:29:47;3.20;1.00
318;DHT22;146;53.448;10.228;2023-03-01T08:32:18;3.20;1.00
318;DHT22;146;53.448;10.228;2023-03-01T08:34:46;3.20;1.00
318;DHT22;146;53.448;10.228;2023-03-01T08:37:15;3.40;1.00
318;DHT22;146;53.448;10.228;2023-03-01T08:39:42;3.40;1.00
318;DHT22;146;53.448;10.228;2023-03-01T08:42:09;3.50;1.00
318;DHT22;146;53.448;10.228;2023-03-01T08:44:36;3.50;1.00
318;DHT22;146;53.448;10.228;2023-03-01T08:47:05;3.50;1.00
318;DHT22;146;53.448;10.228;2023-03-01T08:49:36;3.50;1.00
318;DHT22;146;53.448;10.228;2023-03-01T08:52:06;3.60;1.00
318;DHT22;146;53.448;10.228;2023-03-01T08:54:33;3.60;1.00
318;DHT22;146;53.448;10.228;2023-03-01T08:57:07;3.70;1.00
318;DHT22;146;53.448;10.228;2023-03-01T08:59:35;3.80;1.00
318;DHT22;146;53.448;10.228;2023-03-01T09:02:12;3.80;1.00
318;DHT22;146;53.448;10.228;2023-03-01T09:04:44;3.80;1.00
318;DHT22;146;53.448;10.228;2023-03-01T09:07:13;3.90;1.00
318;DHT22;146;53.448;10.228;2023-03-01T09:09:40;3.60;1.00
318;DHT22;146;53.448;10.228;2023-03-01T09:12:09;3.70;1.00
318;DHT22;146;53.448;10.228;2023-03-01T09:14:36;3.60;1.00
318;DHT22;146;53.448;10.228;2023-03-01T09:17:04;3.50;1.00
318;DHT22;146;53.448;10.228;2023-03-01T09:19:31;3.40;1.00
318;DHT22;146;53.448;10.228;2023-03-01T09:21:59;3.60;1.00
318;DHT22;146;53.448;10.228;2023-03-01T09:24:26;3.60;1.00
318;DHT22;146;53.448;10.228;2023-03-01T09:26:54;3.60;1.00
318;DHT22;146;53.448;10.228;2023-03-01T09:29:21;3.60;1.00
318;DHT22;146;53.448;10.228;2023-03-01T09:31:51;3.60;1.00
318;DHT22;146;53.448;10.228;2023-03-01T09:34:20;3.80;1.00
318;DHT22;146;53.448;10.228;2023-03-01T09:36:49;3.80;1.00
318;DHT22;146;53.448;10.228;2023-03-01T09:39:17;3.90;1.00
318;DHT22;146;53.448;10.228;2023-03-01T09:41:49;4.10;1.00
318;DHT22;146;53.448;10.228;2023-03-01T09:44:24;4.30;1.00
318;DHT22;146;53.448;10.228;2023-03-01T09:46:59;4.50;1.00
318;DHT22;146;53.448;10.228;2023-03-01T09:49:28;4.70;1.00
318;DHT22;146;53.448;10.228;2023-03-01T09:51:59;4.80;1.00
318;DHT22;146;53.448;10.228;2023-03-01T09:54:31;4.80;1.00
318;DHT22;146;53.448;10.228;2023-03-01T09:57:17;5.00;1.00
318;DHT22;146;53.448;10.228;2023-03-01T10:00:09;5.30;1.00
318;DHT22;146;53.448;10.228;2023-03-01T10:02:42;5.40;1.00
318;DHT22;146;53.448;10.228;2023-03-01T10:05:24;5.60;1.00
318;DHT22;146;53.448;10.228;2023-03-01T10:08:26;5.70;1.00
318;DHT22;146;53.448;10.228;2023-03-01T10:10:56;5.70;1.00
318;DHT22;146;53.448;10.228;2023-03-01T10:13:27;5.80;1.00
318;DHT22;146;53.448;10.228;2023-03-01T10:15:57;5.90;1.00
318;DHT22;146;53.448;10.228;2023-03-01T10:18:32;5.70;1.00
318;DHT22;146;53.448;10.228;2023-03-01T10:21:14;5.80;1.00
318;DHT22;146;53.448;10.228;2023-03-01T10:23:45;5.80;1.00
318;DHT22;146;53.448;10.228;2023-03-01T10:26:35;5.70;1.00
318;DHT22;146;53.448;10.228;2023-03-01T10:29:06;5.70;1.00
318;DHT22;146;53.448;10.228;2023-03-01T10:31:39;5.70;1.00
318;DHT22;146;53.448;10.228;2023-03-01T10:34:15;5.80;1.00
318;DHT22;146;53.448;10.228;2023-03-01T10:36:43;5.80;1.00
318;DHT22;146;53.448;10.228;2023-03-01T10:39:16;5.90;1.00
318;DHT22;146;53.448;10.228;2023-03-01T10:41:56;5.90;1.00
318;DHT22;146;53.448;10.228;2023-03-01T10:44:38;6.00;1.00
318;DHT22;146;53.448;10.228;2023-03-01T10:47:13;6.20;1.00
318;DHT22;146;53.448;10.228;2023-03-01T10:49:52;6.30;1.00
318;DHT22;146;53.448;10.228;2023-03-01T10:52:21;6.30;1.00
318;DHT22;146;53.448;10.228;2023-03-01T10:54:53;6.30;1.00
318;DHT22;146;53.448;10.228;2023-03-01T10:57:32;6.40;1.00
318;DHT22;146;53.448;10.228;2023-03-01T11:00:23;6.50;1.00
318;DHT22;146;53.448;10.228;2023-03-01T11:03:12;6.50;1.00
318;DHT22;146;53.448;10.228;2023-03-01T11:06:03;6.60;1.00
318;DHT22;146;53.448;10.228;2023-03-01T11:08:35;6.60;1.00
318;DHT22;146;53.448;10.228;2023-03-01T11:11:30;6.50;1.00
318;DHT22;146;53.448;10.228;2023-03-01T11:14:01;6.60;1.00
318;DHT22;146;53.448;10.228;2023-03-01T11:16:33;6.70;1.00
318;DHT22;146;53.448;10.228;2023-03-01T11:19:21;6.70;1.00
318;DHT22;146;53.448;10.228;2023-03-01T11:21:58;6.70;1.00
318;DHT22;146;53.448;10.228;2023-03-01T11:24:34;6.70;1.00
318;DHT22;146;53.448;10.228;2023-03-01T11:27:04;6.80;1.00
318;DHT22;146;53.448;10.228;2023-03-01T11:29:42;6.90;1.00
318;DHT22;146;53.448;10.228;2023-03-01T11:32:13;6.90;1.00
318;DHT22;146;53.448;10.228;2023-03-01T11:34:45;6.90;1.00
318;DHT22;146;53.448;10.228;2023-03-01T11:37:37;7.00;1.00
318;DHT22;146;53.448;10.228;2023-03-01T11:40:13;7.00;1.00
318;DHT22;146;53.448;10.228;2023-03-01T11:43:01;7.00;1.00
318;DHT22;146;53.448;10.228;2023-03-01T11:45:41;7.10;1.00
318;DHT22;146;53.448;10.228;2023-03-01T11:51:19;7.30;1.00
318;DHT22;146;53.448;10.228;2023-03-01T11:53:57;7.20;1.00
318;DHT22;146;53.448;10.228;2023-03-01T11:56:31;7.40;1.00
318;DHT22;146;53.448;10.228;2023-03-01T11:59:33;7.50;1.00
318;DHT22;146;53.448;10.228;2023-03-01T12:02:43;7.40;1.00
318;DHT22;146;53.448;10.228;2023-03-01T12:05:45;7.30;1.00
318;DHT22;146;53.448;10.228;2023-03-01T12:08:20;7.40;1.00
318;DHT22;146;53.448;10.228;2023-03-01T12:10:56;7.40;1.00
318;DHT22;146;53.448;10.228;2023-03-01T12:17:24;7.30;1.00
318;DHT22;146;53.448;10.228;2023-03-01T12:20:19;7.30;1.00
318;DHT22;146;53.448;10.228;2023-03-01T12:23:13;7.50;1.00
318;DHT22;146;53.448;10.228;2023-03-01T12:25:46;7.50;1.00
318;DHT22;146;53.448;10.228;2023-03-01T12:28:36;7.60;1.00
318;DHT22;146;53.448;10.228;2023-03-01T12:31:49;7.60;1.00
318;DHT22;146;53.448;10.228;2023-03-01T12:34:33;7.80;1.00
318;DHT22;146;53.448;10.228;2023-03-01T12:37:22;7.80;1.00
318;DHT22;146;53.448;10.228;2023-03-01T12:40:13;7.90;1.00
318;DHT22;146;53.448;10.228;2023-03-01T12:42:48;7.80;1.00
318;DHT22;146;53.448;10.228;2023-03-01T12:45:38;7.80;1.00
318;DHT22;146;53.448;10.228;2023-03-01T12:48:19;7.80;1.00
318;DHT22;146;53.448;10.228;2023-03-01T12:50:53;7.80;1.00
318;DHT22;146;53.448;10.228;2023-03-01T12:53:25;7.90;1.00
318;DHT22;146;53.448;10.228;2023-03-01T12:55:54;7.80;1.00
318;DHT22;146;53.448;10.228;2023-03-01T12:58:27;7.80;1.00
318;DHT22;146;53.448;10.228;2023-03-01T13:01:15;7.80;1.00
318;DHT22;146;53.448;10.228;2023-03-01T13:04:01;7.90;1.00
318;DHT22;146;53.448;10.228;2023-03-01T13:06:50;8.10;1.00
318;DHT22;146;53.448;10.228;2023-03-01T13:09:25;8.10;1.00
318;DHT22;146;53.448;10.228;2023-03-01T13:11:54;8.10;1.00
318;DHT22;146;53.448;10.228;2023-03-01T13:14:38;8.10;1.00
318;DHT22;146;53.448;10.228;2023-03-01T13:17:30;8.20;1.00
318;DHT22;146;53.448;10.228;2023-03-01T13:20:00;8.20;1.00
318;DHT22;146;53.448;10.228;2023-03-01T13:22:32;8.10;1.00
318;DHT22;146;53.448;10.228;2023-03-01T13:25:14;8.20;1.00
318;DHT22;146;53.448;10.228;2023-03-01T13:27:44;8.30;1.00
318;DHT22;146;53.448;10.228;2023-03-01T13:30:39;8.50;1.00
318;DHT22;146;53.448;10.228;2023-03-01T13:33:39;8.50;1.00
318;DHT22;146;53.448;10.228;2023-03-01T13:36:07;8.30;1.00
318;DHT22;146;53.448;10.228;2023-03-01T13:38:38;8.50;1.00
318;DHT22;146;53.448;10.228;2023-03-01T13:41:06;8.50;1.00
318;DHT22;146;53.448;10.228;2023-03-01T13:43:37;8.60;1.00
318;DHT22;146;53.448;10.228;2023-03-01T13:46:10;8.60;1.00
318;DHT22;146;53.448;10.228;2023-03-01T13:48:38;8.60;1.00
318;DHT22;146;53.448;10.228;2023-03-01T13:51:09;8.60;1.00
318;DHT22;146;53.448;10.228;2023-03-01T13:53:42;8.70;1.00
318;DHT22;146;53.448;10.228;2023-03-01T13:56:12;8.80;1.00
318;DHT22;146;53.448;10.228;2023-03-01T13:58:47;8.80;1.00
318;DHT22;146;53.448;10.228;2023-03-01T14:01:24;8.70;1.00
318;DHT22;146;53.448;10.228;2023-03-01T14:03:55;8.50;1.00
318;DHT22;146;53.448;10.228;2023-03-01T14:06:24;8.40;1.00
318;DHT22;146;53.448;10.228;2023-03-01T14:09:04;8.60;1.00
318;DHT22;146;53.448;10.228;2023-03-01T14:14:44;8.60;1.00
318;DHT22;146;53.448;10.228;2023-03-01T14:17:35;8.40;1.00
318;DHT22;146;53.448;10.228;2023-03-01T14:20:11;8.50;1.00
318;DHT22;146;53.448;10.228;2023-03-01T14:22:40;8.50;1.00
318;DHT22;146;53.448;10.228;2023-03-01T14:25:28;8.50;1.00
318;DHT22;146;53.448;10.228;2023-03-01T14:28:11;8.50;1.00
318;DHT22;146;53.448;10.228;2023-03-01T14:30:42;8.60;1.00
318;DHT22;146;53.448;10.228;2023-03-01T14:33:22;8.60;1.00
318;DHT22;146;53.448;10.228;2023-03-01T14:35:54;8.70;1.00
318;DHT22;146;53.448;10.228;2023-03-01T14:38:31;8.70;1.00
318;DHT22;146;53.448;10.228;2023-03-01T14:41:02;8.70;1.00
318;DHT22;146;53.448;10.228;2023-03-01T14:43:31;8.60;1.00
318;DHT22;146;53.448;10.228;2023-03-01T14:45:59;8.60;1.00
318;DHT22;146;53.448;10.228;2023-03-01T14:48:27;8.60;1.00
318;DHT22;146;53.448;10.228;2023-03-01T14:50:54;8.60;1.00
318;DHT22;146;53.448;10.228;2023-03-01T14:53:24;8.50;1.00
318;DHT22;146;53.448;10.228;2023-03-01T14:56:01;8.60;1.00
318;DHT22;146;53.448;10.228;2023-03-01T14:58:28;8.50;1.00
318;DHT22;146;53.448;10.228;2023-03-01T15:01:00;8.50;1.00
318;DHT22;146;53.448;10.228;2023-03-01T15:03:32;8.50;1.00
318;DHT22;146;53.448;10.228;2023-03-01T15:06:01;8.50;1.00
318;DHT22;146;53.448;10.228;2023-03-01T15:08:32;8.50;1.00
318;DHT22;146;53.448;10.228;2023-03-01T15:11:05;8.60;1.00
318;DHT22;146;53.448;10.228;2023-03-01T15:13:33;8.50;1.00
318;DHT22;146;53.448;10.228;2023-03-01T15:16:06;8.50;1.00
318;DHT22;146;53.448;10.228;2023-03-01T15:18:34;8.50;1.00
318;DHT22;146;53.448;10.228;2023-03-01T15:21:07;8.50;1.00
318;DHT22;146;53.448;10.228;2023-03-01T15:23:34;8.50;1.00
318;DHT22;146;53.448;10.228;2023-03-01T15:26:03;8.60;1.00
318;DHT22;146;53.448;10.228;2023-03-01T15:28:34;8.60;1.00
318;DHT22;146;53.448;10.228;2023-03-01T15:31:20;8.60;1.00
318;DHT22;146;53.448;10.228;2023-03-01T15:33:48;8.40;1.00
318;DHT22;146;53.448;10.228;2023-03-01T15:36:33;8.30;1.00
318;DHT22;146;53.448;10.228;2023-03-01T15:41:48;8.10;1.00
318;DHT22;146;53.448;10.228;2023-03-01T15:44:24;8.10;1.00
318;DHT22;146;53.448;10.228;2023-03-01T15:46:53;8.10;1.00
318;DHT22;146;53.448;10.228;2023-03-01T15:49:29;8.00;1.00
318;DHT22;146;53.448;10.228;2023-03-01T15:52:08;7.90;1.00
318;DHT22;146;53.448;10.228;2023-03-01T15:54:38;8.00;1.00
318;DHT22;146;53.448;10.228;2023-03-01T15:57:10;7.90;1.00
318;DHT22;146;53.448;10.228;2023-03-01T15:59:41;7.80;1.00
318;DHT22;146;53.448;10.228;2023-03-01T16:02:11;7.80;1.00
318;DHT22;146;53.448;10.228;2023-03-01T16:04:39;7.80;1.00
318;DHT22;146;53.448;10.228;2023-03-01T16:07:11;7.70;1.00
318;DHT22;146;53.448;10.228;2023-03-01T16:09:38;7.70;1.00
318;DHT22;146;53.448;10.228;2023-03-01T16:12:08;7.70;1.00
318;DHT22;146;53.448;10.228;2023-03-01T16:14:38;7.60;1.00
318;DHT22;146;53.448;10.228;2023-03-01T16:17:07;7.60;1.00
318;DHT22;146;53.448;10.228;2023-03-01T16:19:39;7.50;1.00
318;DHT22;146;53.448;10.228;2023-03-01T16:22:06;7.30;1.00
318;DHT22;146;53.448;10.228;2023-03-01T16:24:38;7.30;1.00
318;DHT22;146;53.448;10.228;2023-03-01T16:27:06;7.30;1.00
318;DHT22;146;53.448;10.228;2023-03-01T16:29:33;7.20;1.00
318;DHT22;146;53.448;10.228;2023-03-01T16:32:00;7.10;1.00
318;DHT22;146;53.448;10.228;2023-03-01T16:34:27;7.00;1.00
318;DHT22;146;53.448;10.228;2023-03-01T16:36:57;7.00;1.00
318;DHT22;146;53.448;10.228;2023-03-01T16:39:24;7.00;1.00
318;DHT22;146;53.448;10.228;2023-03-01T16:41:51;6.90;1.00
318;DHT22;146;53.448;10.228;2023-03-01T16:44:18;6.80;1.00
318;DHT22;146;53.448;10.228;2023-03-01T16:46:45;6.80;1.00
318;DHT22;146;53.448;10.228;2023-03-01T16:49:11;6.70;1.00
318;DHT22;146;53.448;10.228;2023-03-01T16:51:38;6.70;1.00
318;DHT22;146;53.448;10.228;2023-03-01T16:54:06;6.60;1.00
318;DHT22;146;53.448;10.228;2023-03-01T16:56:39;6.60;1.00
318;DHT22;146;53.448;10.228;2023-03-01T16:59:06;6.50;1.00
318;DHT22;146;53.448;10.228;2023-03-01T17:01:33;6.50;1.00
318;DHT22;146;53.448;10.228;2023-03-01T17:04:05;6.40;1.00
318;DHT22;146;53.448;10.228;2023-03-01T17:06:32;6.30;1.00
318;DHT22;146;53.448;10.228;2023-03-01T17:08:59;6.30;1.00
318;DHT22;146;53.448;10.228;2023-03-01T17:11:27;6.20;1.00
318;DHT22;146;53.448;10.228;2023-03-01T17:13:54;6.20;1.00
318;DHT22;146;53.448;10.228;2023-03-01T17:16:21;6.20;1.00
318;DHT22;146;53.448;10.228;2023-03-01T17:18:51;6.10;1.00
318;DHT22;146;53.448;10.228;2023-03-01T17:21:23;6.10;1.00
318;DHT22;146;53.448;10.228;2023-03-01T17:23:55;6.10;1.00
318;DHT22;146;53.448;10.228;2023-03-01T17:26:22;6.00;1.00
318;DHT22;146;53.448;10.228;2023-03-01T17:28:53;5.90;1.00
318;DHT22;146;53.448;10.228;2023-03-01T17:31:22;5.80;1.00
318;DHT22;146;53.448;10.228;2023-03-01T17:33:58;5.80;1.00
318;DHT22;146;53.448;10.228;2023-03-01T17:36:25;5.70;1.00